Time;durP1;ratioP1;P1;durP2;ratioP2;P2;SDS_P1;SDS_P2;PMS_P1;PMS_P2;Temp;Humidity;BMP_temperature;BMP_pressure;BME280_temperature;BME280_humidity;BME280_pressure;Samples;Min_cycle;Max_cycle;Signal;HPM_P1;HPM_P2
2022/06/26 00:02:01;;;;;;;7.17;4.70;;;;;;;17.82;100.00;99735.31;1714379;82;21054;-65
2022/06/26 00:04:28;;;;;;;8.50;5.10;;;;;;;17.76;100.00;99731.66;1726714;81;21125;-65
2022/06/26 00:06:55;;;;;;;7.58;4.60;;;;;;;17.77;100.00;99725.03;1727435;82;21083;-66
2022/06/26 00:09:22;;;;;;;5.53;4.70;;;;;;;17.82;100.00;99724.86;1723797;82;21595;-67
2022/06/26 00:11:50;;;;;;;9.15;4.55;;;;;;;17.82;100.00;99728.99;1727425;82;21077;-66
2022/06/26 00:14:17;;;;;;;8.33;5.08;;;;;;;17.77;100.00;99729.16;1728104;81;22589;-65
2022/06/26 00:16:44;;;;;;;7.10;4.83;;;;;;;17.73;100.00;99724.85;1722414;82;20997;-66
2022/06/26 00:19:11;;;;;;;7.10;4.67;;;;;;;17.75;100.00;99735.53;1722147;82;21064;-66
2022/06/26 00:21:37;;;;;;;9.00;4.80;;;;;;;17.77;100.00;99734.66;1728292;82;21620;-66
2022/06/26 00:24:05;;;;;;;7.30;4.90;;;;;;;17.76;100.00;99738.53;1721062;81;21125;-66
2022/06/26 00:26:31;;;;;;;10.20;5.08;;;;;;;17.70;100.00;99735.70;1718802;81;21040;-67
2022/06/26 00:28:57;;;;;;;;;;;;;;;17.65;100.00;99744.90;1708685;82;21041;-66
2022/06/26 00:31:24;;;;;;;12.43;4.80;;;;;;;17.63;100.00;99740.28;1722537;82;20128;-66
2022/06/26 00:33:51;;;;;;;7.45;5.22;;;;;;;17.58;100.00;99742.36;1723850;81;21038;-66
2022/06/26 00:36:17;;;;;;;;;;;;;;;17.54;100.00;99739.39;1728268;81;21510;-67
2022/06/26 00:38:43;;;;;;;9.43;5.40;;;;;;;17.48;100.00;99750.86;1722380;82;20100;-66
2022/06/26 00:41:09;;;;;;;;;;;;;;;17.33;100.00;99750.14;1727487;82;20987;-66
2022/06/26 00:43:36;;;;;;;6.62;5.15;;;;;;;17.30;100.00;99754.91;1705150;82;20096;-66
2022/06/26 00:46:05;;;;;;;10.48;5.10;;;;;;;17.27;100.00;99755.55;1726799;81;20951;-65
2022/06/26 00:48:31;;;;;;;8.23;5.37;;;;;;;17.26;100.00;99756.66;1721843;82;21122;-65
2022/06/26 00:50:58;;;;;;;8.85;5.45;;;;;;;17.22;100.00;99754.29;1713350;82;20983;-66
2022/06/26 00:53:24;;;;;;;;;;;;;;;17.16;100.00;99762.43;1722455;81;21525;-66
2022/06/26 00:55:50;;;;;;;7.17;5.67;;;;;;;17.09;100.00;99758.50;1721262;82;20127;-66
2022/06/26 00:58:17;;;;;;;6.25;5.17;;;;;;;16.98;100.00;99768.12;1722261;81;21175;-66
2022/06/26 01:00:44;;;;;;;8.15;5.42;;;;;;;16.99;100.00;99765.08;1724797;82;21071;-66
2022/06/26 01:03:11;;;;;;;8.98;4.90;;;;;;;17.02;100.00;99766.38;1726507;82;21077;-65
2022/06/26 01:05:39;;;;;;;9.50;5.58;;;;;;;17.05;100.00;99766.56;1717177;81;21069;-66
2022/06/26 01:16:13;;;;;;;8.35;5.03;;;;;;;16.96;100.00;99767.64;1795318;78;22877;-66
2022/06/26 01:18:40;;;;;;;7.15;5.00;;;;;;;16.91;100.00;99766.64;1741345;80;21083;-66
2022/06/26 01:21:07;;;;;;;9.45;5.42;;;;;;;16.95;100.00;99764.63;1736889;82;21062;-69
2022/06/26 01:23:33;;;;;;;7.87;5.53;;;;;;;16.91;100.00;99769.94;1710743;82;21070;-68
2022/06/26 01:26:00;;;;;;;8.00;5.58;;;;;;;16.85;100.00;99775.33;1730546;81;21032;-68
2022/06/26 01:28:27;;;;;;;7.08;5.00;;;;;;;16.82;100.00;99775.95;1726003;81;21631;-68
2022/06/26 01:30:54;;;;;;;9.00;5.47;;;;;;;16.82;100.00;99775.95;1729114;81;21098;-68
2022/06/26 01:33:21;;;;;;;7.03;5.08;;;;;;;16.82;100.00;99775.95;1705876;82;21078;-68
2022/06/26 01:35:47;;;;;;;7.83;5.75;;;;;;;16.79;100.00;99777.36;1710336;81;21344;-68
2022/06/26 01:38:21;;;;;;;8.73;5.85;;;;;;;16.75;100.00;99782.45;1718258;82;21655;-68
2022/06/26 01:40:53;;;;;;;9.30;5.15;;;;;;;16.71;100.00;99781.44;1706294;82;21637;-68
2022/06/26 01:43:29;;;;;;;9.65;5.10;;;;;;;16.68;100.00;99784.25;1683770;83;21067;-68
2022/06/26 01:45:57;;;;;;;8.03;5.43;;;;;;;16.71;100.00;99786.94;1681642;84;21041;-68
2022/06/26 01:48:29;;;;;;;8.40;5.05;;;;;;;16.70;100.00;99786.12;1691213;83;21601;-68
2022/06/26 01:50:58;;;;;;;9.70;5.10;;;;;;;16.70;100.00;99788.05;1665208;84;21040;-68
2022/06/26 01:53:24;;;;;;;7.62;5.05;;;;;;;16.68;100.00;99787.56;1689919;83;21078;-68
2022/06/26 01:55:50;;;;;;;;;;;;;;;16.64;100.00;99791.49;1689276;84;21047;-67
2022/06/26 01:58:19;;;;;;;7.80;5.50;;;;;;;16.62;100.00;99795.66;1686415;84;20106;-68
2022/06/26 02:00:46;;;;;;;6.95;5.00;;;;;;;16.58;100.00;99793.30;1688044;84;21069;-68
2022/06/26 02:03:15;;;;;;;8.83;5.20;;;;;;;16.59;100.00;99794.91;1701089;83;21041;-68
2022/06/26 02:05:42;;;;;;;8.85;5.58;;;;;;;16.61;100.00;99794.87;1673741;84;21052;-68
2022/06/26 02:08:09;;;;;;;11.10;5.72;;;;;;;16.61;100.00;99804.48;1679483;84;21026;-68
2022/06/26 02:13:36;;;;;;;8.88;5.60;;;;;;;16.58;100.00;99802.33;1677643;84;21083;-68
2022/06/26 02:16:19;;;;;;;10.20;5.87;;;;;;;16.61;100.00;99808.61;1666095;85;21030;-68
2022/06/26 02:18:48;;;;;;;9.25;6.20;;;;;;;16.62;100.00;99807.46;1669593;85;21109;-68
2022/06/26 02:21:16;;;;;;;8.20;6.00;;;;;;;16.65;100.00;99815.67;1678808;84;21042;-69
2022/06/26 02:23:46;;;;;;;11.38;6.67;;;;;;;16.65;100.00;99818.42;1666123;85;21118;-68
2022/06/26 02:26:12;;;;;;;10.00;6.05;;;;;;;16.60;100.00;99818.52;1678797;84;21070;-67
2022/06/26 02:28:39;;;;;;;8.85;7.03;;;;;;;16.61;100.00;99825.66;1668678;85;21616;-68
2022/06/26 02:31:06;;;;;;;10.60;7.28;;;;;;;16.65;100.00;99832.95;1693853;83;21547;-67
2022/06/26 02:33:32;;;;;;;9.53;7.10;;;;;;;16.70;100.00;99836.97;1682212;84;21667;-67
2022/06/26 02:35:59;;;;;;;10.90;7.33;;;;;;;16.76;100.00;99841.78;1685789;84;21066;-67
2022/06/26 02:38:26;;;;;;;13.78;8.00;;;;;;;16.82;100.00;99836.44;1680148;84;21656;-67
2022/06/26 02:40:52;;;;;;;11.05;7.62;;;;;;;16.83;100.00;99833.36;1684000;84;21684;-67
2022/06/26 02:43:19;;;;;;;10.75;7.83;;;;;;;16.85;100.00;99833.06;1675846;84;21030;-68
2022/06/26 02:45:46;;;;;;;11.00;7.97;;;;;;;16.90;100.00;99830.99;1679065;84;21475;-68
2022/06/26 02:48:13;;;;;;;13.15;8.48;;;;;;;16.97;100.00;99827.80;1676003;84;21627;-67
2022/06/26 02:50:40;;;;;;;12.50;8.43;;;;;;;17.04;100.00;99836.44;1678701;84;21037;-67
2022/06/26 02:53:08;;;;;;;11.73;8.33;;;;;;;17.09;100.00;99834.95;1680046;82;21608;-67
2022/06/26 02:55:35;;;;;;;14.80;9.00;;;;;;;17.15;100.00;99837.81;1691629;84;21563;-67
2022/06/26 02:58:03;;;;;;;14.20;8.65;;;;;;;17.19;100.00;99839.38;1675040;84;21093;-67
2022/06/26 03:00:31;;;;;;;10.98;7.85;;;;;;;17.27;100.00;99836.70;1673665;84;21048;-67
2022/06/26 03:03:01;;;;;;;11.33;8.18;;;;;;;17.40;100.00;99844.06;1689658;84;21516;-68
2022/06/26 03:05:30;;;;;;;14.05;8.20;;;;;;;17.50;100.00;99837.48;1681072;84;21069;-66
2022/06/26 03:07:57;;;;;;;11.83;9.13;;;;;;;17.60;100.00;99835.08;1675137;84;21055;-68
2022/06/26 03:10:23;;;;;;;12.00;8.68;;;;;;;17.65;100.00;99835.73;1680150;84;21050;-68
2022/06/26 03:12:50;;;;;;;13.15;8.35;;;;;;;17.69;100.00;99845.55;1677475;84;21612;-67
2022/06/26 03:15:17;;;;;;;10.80;8.40;;;;;;;17.72;100.00;99847.11;1702771;84;21108;-67
2022/06/26 03:17:44;;;;;;;11.95;8.35;;;;;;;17.78;100.00;99838.17;1691423;83;21540;-68
2022/06/26 03:20:14;;;;;;;13.03;8.38;;;;;;;17.85;100.00;99848.16;1695483;84;21038;-68
2022/06/26 03:22:41;;;;;;;11.12;8.23;;;;;;;17.92;100.00;99852.65;1697628;83;21585;-67
2022/06/26 03:25:09;;;;;;;11.45;8.65;;;;;;;18.02;100.00;99846.86;1673362;84;21045;-68
2022/06/26 03:27:38;;;;;;;13.30;8.90;;;;;;;18.13;100.00;99850.14;1692120;83;21105;-67
2022/06/26 03:30:07;;;;;;;11.38;8.30;;;;;;;18.18;100.00;99849.41;1664380;86;21054;-69
2022/06/26 03:32:33;;;;;;;12.37;9.65;;;;;;;18.29;100.00;99851.31;1673339;85;21960;-67
2022/06/26 03:35:02;;;;;;;11.80;9.40;;;;;;;18.41;100.00;99846.00;1685932;85;21027;-68
2022/06/26 03:37:28;;;;;;;12.53;9.23;;;;;;;18.52;100.00;99845.98;1680549;83;21014;-68
2022/06/26 03:39:57;;;;;;;17.05;9.03;;;;;;;18.62;100.00;99847.61;1678260;84;21131;-68
2022/06/26 03:42:24;;;;;;;12.20;8.50;;;;;;;18.67;100.00;99850.23;1678007;83;21537;-68
2022/06/26 03:44:50;;;;;;;11.25;7.95;;;;;;;18.76;100.00;99846.34;1673280;85;21086;-69
2022/06/26 03:47:17;;;;;;;12.18;7.95;;;;;;;18.91;100.00;99842.30;1686979;83;21036;-69
2022/06/26 03:49:46;;;;;;;14.07;8.20;;;;;;;19.03;100.00;99845.77;1653988;84;21002;-69
2022/06/26 03:52:13;;;;;;;11.95;7.78;;;;;;;19.12;100.00;99842.45;1657781;86;21952;-68
2022/06/26 03:54:39;;;;;;;14.90;8.30;;;;;;;19.19;100.00;99842.20;1672956;84;21093;-68
2022/06/26 03:57:06;;;;;;;13.95;8.68;;;;;;;19.35;100.00;99844.69;1679921;84;21498;-69
2022/06/26 03:59:33;;;;;;;11.88;7.83;;;;;;;19.51;100.00;99852.50;1692720;83;21079;-68
2022/06/26 04:02:00;;;;;;;11.57;7.78;;;;;;;19.61;100.00;99843.30;1694479;83;21602;-68
2022/06/26 04:04:29;;;;;;;11.05;7.30;;;;;;;19.70;100.00;99841.31;1661310;85;21058;-68
2022/06/26 04:06:55;;;;;;;12.85;6.97;;;;;;;19.79;100.00;99834.39;1670600;85;21586;-68
2022/06/26 04:09:24;;;;;;;9.83;6.97;;;;;;;19.94;100.00;99833.85;1666185;84;21099;-67
2022/06/26 04:11:51;;;;;;;10.32;7.20;;;;;;;20.10;100.00;99836.28;1692760;84;21006;-68
2022/06/26 04:14:18;;;;;;;9.68;7.20;;;;;;;20.27;100.00;99830.70;1663144;85;21574;-69
2022/06/26 04:16:45;;;;;;;11.97;7.05;;;;;;;20.45;100.00;99828.64;1690958;83;21034;-68
2022/06/26 04:19:12;;;;;;;13.08;7.55;;;;;;;20.69;100.00;99834.93;1725480;81;21070;-67
2022/06/26 04:21:39;;;;;;;9.65;6.50;;;;;;;20.97;100.00;99825.52;1725835;81;21046;-67
2022/06/26 04:24:09;;;;;;;8.80;5.78;;;;;;;21.25;100.00;99824.64;1722038;82;21075;-67
2022/06/26 04:26:36;;;;;;;9.83;6.60;;;;;;;21.54;100.00;99813.19;1711379;82;21573;-68
2022/06/26 04:29:02;;;;;;;8.30;5.40;;;;;;;21.83;100.00;99816.58;1719825;81;21054;-67
2022/06/26 04:31:31;;;;;;;7.95;4.70;;;;;;;22.08;100.00;99813.85;1726800;82;21097;-68
2022/06/26 04:33:58;;;;;;;6.35;4.30;;;;;;;22.32;100.00;99816.04;1715322;82;21561;-68
2022/06/26 04:36:24;;;;;;;6.72;4.97;;;;;;;22.55;100.00;99805.27;1718007;82;21431;-69
2022/06/26 04:38:51;;;;;;;6.22;4.00;;;;;;;22.76;100.00;99796.23;1718420;81;21047;-69
2022/06/26 04:41:36;;;;;;;4.47;3.70;;;;;;;23.04;100.00;99805.97;1718538;81;21437;-69
2022/06/26 04:44:07;;;;;;;4.78;3.47;;;;;;;23.25;100.00;99809.93;1696283;82;21082;-70
2022/06/26 04:46:34;;;;;;;4.70;3.33;;;;;;;23.25;100.00;99809.93;1727613;82;21100;-69
2022/06/26 04:49:01;;;;;;;6.72;3.90;;;;;;;23.43;100.00;99807.09;1725478;81;21082;-70
2022/06/26 04:51:27;;;;;;;6.03;3.60;;;;;;;23.48;100.00;99803.27;1724776;81;21031;-68
2022/06/26 04:53:56;;;;;;;5.08;3.37;;;;;;;23.40;100.00;99802.80;1709676;82;21537;-69
2022/06/26 04:56:22;;;;;;;5.83;3.40;;;;;;;23.37;100.00;99802.94;1719595;81;21066;-69
2022/06/26 04:58:53;;;;;;;4.87;3.58;;;;;;;23.40;100.00;99802.23;1725788;81;21510;-67
2022/06/26 05:01:20;;;;;;;4.65;3.47;;;;;;;23.39;100.00;99808.94;1724422;82;21735;-69
2022/06/26 05:03:49;;;;;;;5.28;3.60;;;;;;;23.40;100.00;99812.52;1722274;82;21075;-67
2022/06/26 05:06:32;;;;;;;5.15;3.70;;;;;;;23.44;100.00;99812.89;1628567;87;21122;-68
2022/06/26 05:09:17;;;;;;;5.35;3.80;;;;;;;23.57;100.00;99811.65;1706484;81;21075;-68
2022/06/26 05:11:44;;;;;;;6.05;3.85;;;;;;;23.82;100.00;99813.69;1724113;81;21082;-69
2022/06/26 05:14:13;;;;;;;6.12;3.55;;;;;;;24.08;100.00;99815.94;1723892;81;21761;-70
2022/06/26 05:16:50;;;;;;;5.37;3.62;;;;;;;24.36;100.00;99813.88;1706306;82;21549;-71
2022/06/26 05:19:18;;;;;;;5.97;3.40;;;;;;;24.68;100.00;99809.04;1727894;81;21577;-71
2022/06/26 05:21:45;;;;;;;8.25;4.15;;;;;;;24.85;100.00;99810.63;1698126;83;21491;-67
2022/06/26 05:24:12;;;;;;;5.30;3.47;;;;;;;25.13;100.00;99809.24;1734396;81;21130;-70
2022/06/26 05:26:40;;;;;;;6.37;3.35;;;;;;;25.55;100.00;99814.05;1720705;82;21042;-71
2022/06/26 05:29:07;;;;;;;5.22;3.27;;;;;;;25.95;100.00;99804.63;1724809;81;21051;-72
2022/06/26 05:31:33;;;;;;;9.18;3.30;;;;;;;26.22;100.00;99803.52;1723715;81;21041;-71
2022/06/26 05:34:00;;;;;;;6.70;3.55;;;;;;;26.43;100.00;99807.83;1719921;82;21617;-70
2022/06/26 05:36:27;;;;;;;5.78;3.22;;;;;;;26.79;100.00;99807.14;1724971;82;21110;-73
2022/06/26 05:38:53;;;;;;;5.87;3.35;;;;;;;27.03;100.00;99806.69;1726043;82;21110;-72
2022/06/26 05:41:20;;;;;;;4.35;3.30;;;;;;;27.02;100.00;99812.66;1725562;81;21027;-71
2022/06/26 05:43:46;;;;;;;6.22;3.17;;;;;;;26.88;100.00;99813.88;1717913;81;21039;-70
2022/06/26 05:46:14;;;;;;;5.40;3.42;;;;;;;26.76;100.00;99816.27;1722028;82;21544;-69
2022/06/26 05:48:43;;;;;;;5.60;3.42;;;;;;;26.72;100.00;99812.03;1715371;82;21518;-72
2022/06/26 05:51:11;;;;;;;7.33;3.65;;;;;;;26.46;100.00;99812.66;1721258;81;21058;-71
2022/06/26 05:53:39;;;;;;;4.72;3.35;;;;;;;26.36;100.00;99813.30;1725059;81;21038;-70
2022/06/26 05:56:07;;;;;;;7.05;3.30;;;;;;;26.41;100.00;99810.17;1716721;81;21609;-71
2022/06/26 05:58:52;;;;;;;4.97;3.30;;;;;;;26.86;100.00;99812.04;1712799;81;21051;-67
2022/06/26 06:01:32;;;;;;;4.20;3.25;;;;;;;27.24;100.00;99814.55;1705890;82;21793;-69
2022/06/26 06:04:01;;;;;;;6.70;4.05;;;;;;;27.40;100.00;99818.50;1737459;81;21059;-71
2022/06/26 06:06:27;;;;;;;6.80;3.95;;;;;;;27.55;100.00;99820.30;1717055;81;21059;-70
2022/06/26 06:08:54;;;;;;;4.72;3.62;;;;;;;27.54;100.00;99820.09;1727491;81;21089;-70
2022/06/26 06:11:26;;;;;;;4.42;3.52;;;;;;;27.51;100.00;99819.45;1696001;83;21108;-70
2022/06/26 06:13:53;;;;;;;8.68;4.05;;;;;;;27.55;100.00;99818.91;1722829;81;21130;-70
2022/06/26 06:16:20;;;;;;;5.78;3.80;;;;;;;27.74;100.00;99820.70;1723699;82;21002;-69
2022/06/26 06:18:47;;;;;;;7.12;3.92;;;;;;;27.92;100.00;99817.45;1722236;81;21074;-69
2022/06/26 06:21:15;;;;;;;7.60;3.52;;;;;;;28.21;100.00;99817.14;1717752;83;21102;-68
2022/06/26 06:23:46;;;;;;;3.72;2.50;;;;;;;28.61;97.31;99817.03;1713857;83;21540;-70
2022/06/26 06:26:19;;;;;;;3.92;2.30;;;;;;;28.91;89.25;99816.84;1708662;83;22121;-69
2022/06/26 06:28:46;;;;;;;3.90;2.55;;;;;;;29.01;86.81;99809.09;1697495;84;21048;-67
2022/06/26 06:31:12;;;;;;;3.30;2.10;;;;;;;29.10;88.03;99810.32;1702202;83;21514;-70
2022/06/26 06:33:39;;;;;;;5.58;2.50;;;;;;;29.20;78.43;99815.75;1694848;83;21088;-71
2022/06/26 06:36:06;;;;;;;2.52;1.90;;;;;;;29.36;79.28;99819.06;1692013;84;21103;-67
2022/06/26 06:38:33;;;;;;;5.47;2.30;;;;;;;29.70;77.97;99827.14;1698200;83;21650;-72
2022/06/26 06:41:03;;;;;;;4.97;1.90;;;;;;;29.77;72.11;99825.16;1697930;83;21098;-70
2022/06/26 06:43:32;;;;;;;5.35;2.05;;;;;;;29.84;74.60;99825.76;1690117;83;21119;-69
2022/06/26 06:46:17;;;;;;;1.85;1.35;;;;;;;29.91;72.66;99824.40;1692214;83;21100;-68
2022/06/26 06:48:45;;;;;;;3.20;1.90;;;;;;;29.79;70.23;99835.99;1673430;84;21078;-71
2022/06/26 06:51:22;;;;;;;6.10;2.20;;;;;;;29.67;69.89;99837.16;1674102;85;21457;-71
2022/06/26 06:53:49;;;;;;;4.25;2.20;;;;;;;29.44;72.05;99831.11;1677899;84;21079;-68
2022/06/26 06:56:15;;;;;;;3.58;1.70;;;;;;;29.38;75.02;99827.06;1683784;84;21159;-70
2022/06/26 06:58:43;;;;;;;3.42;1.55;;;;;;;29.44;74.64;99829.70;1696145;83;21109;-67
2022/06/26 07:01:10;;;;;;;2.70;1.87;;;;;;;29.47;71.44;99833.11;1694055;83;21157;-68
2022/06/26 07:03:37;;;;;;;4.20;1.80;;;;;;;29.55;71.68;99831.32;1696222;84;21038;-69
2022/06/26 07:06:03;;;;;;;4.00;1.60;;;;;;;29.72;74.12;99833.17;1672806;85;21044;-68
2022/06/26 07:08:32;;;;;;;2.12;1.50;;;;;;;29.90;69.63;99833.41;1680478;84;21062;-68
2022/06/26 07:10:58;;;;;;;1.62;1.32;;;;;;;29.91;67.73;99830.01;1678036;85;21105;-70
2022/06/26 07:13:25;;;;;;;3.27;1.50;;;;;;;29.79;68.11;99825.58;1680574;84;21625;-68
2022/06/26 07:15:51;;;;;;;2.67;1.30;;;;;;;29.63;66.33;99825.13;1688600;84;20988;-70
2022/06/26 07:18:18;;;;;;;3.12;1.60;;;;;;;29.68;69.29;99833.17;1680018;84;21066;-70
2022/06/26 07:20:44;;;;;;;3.35;1.60;;;;;;;29.70;65.24;99835.55;1714028;82;20996;-71
2022/06/26 07:23:12;;;;;;;2.42;1.42;;;;;;;29.58;66.05;99823.50;1705845;83;21063;-71
2022/06/26 07:25:40;;;;;;;3.92;1.30;;;;;;;29.69;68.05;99833.34;1713437;82;21078;-70
2022/06/26 07:28:08;;;;;;;3.47;1.55;;;;;;;29.96;61.43;99830.44;1713380;82;21144;-68
2022/06/26 07:30:36;;;;;;;2.70;1.40;;;;;;;30.17;59.25;99826.02;1710940;82;20967;-70
2022/06/26 07:33:05;;;;;;;1.67;1.27;;;;;;;30.03;56.43;99828.23;1709154;82;21094;-69
2022/06/26 07:35:31;;;;;;;3.80;1.60;;;;;;;29.49;58.54;99819.48;1713527;82;21023;-70
2022/06/26 07:37:58;;;;;;;1.75;1.15;;;;;;;29.09;61.50;99824.12;1716658;82;21090;-72
2022/06/26 07:40:25;;;;;;;2.08;1.05;;;;;;;28.98;61.73;99825.29;1704058;83;21222;-68
2022/06/26 07:42:51;;;;;;;3.77;1.20;;;;;;;28.68;61.93;99824.70;1700936;83;21484;-67
2022/06/26 07:45:18;;;;;;;2.62;1.50;;;;;;;28.31;62.51;99831.80;1726490;82;21046;-69
2022/06/26 07:47:49;;;;;;;2.62;1.30;;;;;;;28.21;63.35;99824.94;1705594;82;21106;-68
2022/06/26 07:50:19;;;;;;;2.22;1.10;;;;;;;28.23;64.30;99817.57;1719681;82;20986;-66
2022/06/26 07:52:45;;;;;;;2.17;1.20;;;;;;;28.34;63.31;99821.26;1715638;81;21099;-68
2022/06/26 07:55:12;;;;;;;2.08;1.20;;;;;;;28.42;65.39;99824.30;1713729;83;21003;-68
2022/06/26 07:57:39;;;;;;;1.95;1.20;;;;;;;28.58;66.04;99818.63;1711337;82;21039;-65
2022/06/26 08:00:07;;;;;;;2.77;1.10;;;;;;;29.07;62.85;99823.72;1719917;82;21070;-68
2022/06/26 08:02:36;;;;;;;3.95;1.40;;;;;;;29.16;59.55;99816.33;1710998;82;21164;-68
2022/06/26 08:05:03;;;;;;;2.20;1.17;;;;;;;29.13;58.79;99829.14;1695433;84;21006;-68
2022/06/26 08:07:29;;;;;;;2.10;1.17;;;;;;;29.29;57.94;99821.03;1674376;83;21554;-69
2022/06/26 08:09:58;;;;;;;5.97;1.45;;;;;;;29.49;58.82;99818.08;1714750;83;21021;-66
2022/06/26 08:12:24;;;;;;;1.50;1.00;;;;;;;29.59;54.90;99822.31;1717359;82;21072;-68
2022/06/26 08:14:51;;;;;;;5.47;1.10;;;;;;;29.60;56.63;99823.93;1718436;82;21038;-69
2022/06/26 08:17:17;;;;;;;3.12;1.00;;;;;;;29.75;55.30;99821.95;1728679;81;21062;-70
2022/06/26 08:20:41;;;;;;;2.08;1.20;;;;;;;29.43;56.42;99828.89;1797539;78;23225;-68
2022/06/26 08:23:08;;;;;;;2.05;0.98;;;;;;;29.02;56.09;99833.09;1771474;80;21124;-70
2022/06/26 08:25:34;;;;;;;2.70;1.20;;;;;;;28.65;55.34;99838.28;1770155;80;21098;-68
2022/06/26 08:28:02;;;;;;;1.75;1.20;;;;;;;28.54;57.64;99833.80;1769637;80;21726;-67
2022/06/26 08:30:29;;;;;;;2.02;1.00;;;;;;;28.84;62.05;99830.82;1780819;80;21043;-68
2022/06/26 08:32:58;;;;;;;2.40;1.10;;;;;;;29.40;59.58;99835.30;1768397;80;21652;-66
2022/06/26 08:35:26;;;;;;;3.87;1.05;;;;;;;29.45;56.50;99839.70;1781635;80;21702;-68
2022/06/26 08:37:56;;;;;;;2.85;1.20;;;;;;;29.13;55.92;99836.16;1775224;80;21119;-66
2022/06/26 08:40:23;;;;;;;4.30;1.10;;;;;;;28.78;58.01;99842.98;1761953;80;21082;-69
2022/06/26 08:42:52;;;;;;;2.58;1.10;;;;;;;28.40;59.39;99844.89;1774687;80;21121;-68
2022/06/26 08:45:20;;;;;;;3.15;1.25;;;;;;;28.18;63.16;99829.33;1705288;83;21066;-67
2022/06/26 08:47:50;;;;;;;2.45;1.17;;;;;;;28.16;64.11;99836.52;1712954;82;21784;-70
2022/06/26 08:50:20;;;;;;;4.55;1.32;;;;;;;28.09;64.36;99826.66;1713307;82;20998;-68
2022/06/26 08:52:49;;;;;;;2.95;1.70;;;;;;;28.02;67.01;99827.34;1726232;82;21046;-68
2022/06/26 08:55:16;;;;;;;4.35;1.02;;;;;;;28.10;69.42;99830.45;1729339;82;21093;-67
2022/06/26 08:57:43;;;;;;;2.10;1.05;;;;;;;28.16;66.33;99820.50;1742488;82;21547;-68
2022/06/26 09:00:11;;;;;;;2.67;1.20;;;;;;;28.12;69.32;99815.50;1706021;83;21426;-68
2022/06/26 09:02:37;;;;;;;2.60;1.17;;;;;;;28.28;65.08;99822.20;1703773;83;21043;-69
2022/06/26 09:05:04;;;;;;;3.17;0.90;;;;;;;28.47;64.82;99821.95;1723037;82;21046;-70
2022/06/26 09:07:31;;;;;;;2.12;1.02;;;;;;;28.57;63.17;99817.61;1729339;83;21007;-71
2022/06/26 09:09:57;;;;;;;2.02;1.07;;;;;;;28.64;60.86;99822.66;1717978;82;22063;-72
2022/06/26 09:12:36;;;;;;;5.37;1.50;;;;;;;28.61;60.45;99817.03;1725734;82;20987;-67
2022/06/26 09:15:03;;;;;;;2.80;1.22;;;;;;;28.31;57.87;99821.42;1716639;82;21679;-66
2022/06/26 09:17:31;;;;;;;5.55;1.30;;;;;;;27.96;60.62;99825.30;1721259;83;21067;-66
2022/06/26 09:19:58;;;;;;;2.77;1.27;;;;;;;27.72;61.35;99821.08;1697005;82;21782;-69
2022/06/26 09:22:25;;;;;;;3.92;1.42;;;;;;;27.47;60.71;99822.80;1701138;83;21055;-64
2022/06/26 09:24:54;;;;;;;4.42;1.42;;;;;;;27.39;65.68;99816.88;1721736;82;21076;-65
2022/06/26 09:27:21;;;;;;;2.25;1.37;;;;;;;27.38;69.96;99819.49;1728757;82;21452;-66
2022/06/26 09:29:51;;;;;;;2.30;1.25;;;;;;;27.54;69.40;99811.11;1706975;83;21044;-66
2022/06/26 09:32:21;;;;;;;4.33;1.50;;;;;;;27.74;69.96;99813.09;1703183;83;21547;-68
2022/06/26 09:34:52;;;;;;;5.17;1.72;;;;;;;27.89;74.14;99807.04;1764668;81;21540;-70
2022/06/26 09:37:20;;;;;;;2.90;1.30;;;;;;;28.03;64.86;99809.38;1697886;84;21041;-69
2022/06/26 09:39:47;;;;;;;1.65;1.15;;;;;;;27.97;65.88;99806.73;1761663;81;21094;-69
2022/06/26 09:42:19;;;;;;;2.42;1.60;;;;;;;27.92;67.25;99804.27;1749741;81;21035;-70
2022/06/26 09:44:53;;;;;;;2.30;1.47;;;;;;;27.97;64.36;99797.53;1753038;81;21059;-68
2022/06/26 09:47:29;;;;;;;3.30;1.60;;;;;;;28.07;63.64;99800.45;1695567;84;21044;-67
2022/06/26 09:50:02;;;;;;;2.12;1.45;;;;;;;28.16;65.69;99802.93;1697636;84;21015;-69
2022/06/26 09:52:31;;;;;;;4.10;1.60;;;;;;;28.31;66.58;99808.02;1685179;84;21015;-68
2022/06/26 09:54:59;;;;;;;3.17;1.70;;;;;;;28.36;65.83;99809.87;1763352;81;20996;-66
2022/06/26 09:57:27;;;;;;;3.25;1.50;;;;;;;28.34;61.49;99812.23;1755760;81;21067;-65
2022/06/26 09:59:56;;;;;;;3.52;1.67;;;;;;;28.17;61.10;99802.52;1762210;81;21183;-66
2022/06/26 10:07:55;;;;;;;5.05;1.65;;;;;;;28.14;63.71;99793.52;1755767;81;21486;-69
2022/06/26 10:10:23;;;;;;;3.42;1.40;;;;;;;28.19;62.90;99803.55;1749028;81;21592;-68
2022/06/26 10:12:58;;;;;;;4.87;1.70;;;;;;;28.23;62.21;99800.78;1764418;80;21557;-68
2022/06/26 10:15:28;;;;;;;4.22;1.65;;;;;;;28.33;61.93;99800.05;1754951;79;21063;-68
2022/06/26 10:18:18;;;;;;;3.30;1.80;;;;;;;28.49;59.33;99802.75;1760717;79;21120;-66
2022/06/26 10:20:45;;;;;;;4.45;1.45;;;;;;;28.65;61.78;99800.47;1753103;80;21878;-64
2022/06/26 10:23:12;;;;;;;5.40;1.70;;;;;;;28.72;59.88;99794.13;1756471;79;21480;-67
2022/06/26 10:25:39;;;;;;;5.33;1.45;;;;;;;28.73;58.83;99799.14;1736043;81;21851;-68
2022/06/26 10:28:07;;;;;;;3.95;1.60;;;;;;;28.59;60.38;99798.44;1694414;82;21663;-67
2022/06/26 10:30:34;;;;;;;3.60;1.65;;;;;;;28.29;58.88;99811.22;1721358;80;21546;-68
2022/06/26 10:33:16;;;;;;;3.08;1.65;;;;;;;27.95;61.09;99809.72;1761420;79;21565;-64
2022/06/26 10:35:46;;;;;;;3.90;1.65;;;;;;;27.72;62.75;99818.28;1760993;80;21593;-64
2022/06/26 10:38:24;;;;;;;3.27;1.75;;;;;;;27.50;62.45;99813.65;1717946;82;21046;-65
2022/06/26 10:44:04;;;;;;;2.83;1.65;;;;;;;27.25;66.15;99811.13;1704906;82;21158;-63
2022/06/26 10:46:41;;;;;;;;;;;;;;;27.43;69.02;99804.56;1704763;83;21043;-62
2022/06/26 10:49:15;;;;;;;5.35;1.92;;;;;;;27.80;63.70;99804.58;1681850;83;20414;-65
2022/06/26 10:51:44;;;;;;;4.50;1.98;;;;;;;28.05;62.71;99805.61;1702138;82;20952;-67
2022/06/26 10:54:24;;;;;;;4.35;1.90;;;;;;;28.25;59.85;99793.59;1763009;79;21035;-67
2022/06/26 11:01:11;;;;;;;;;;;;;;;28.42;59.35;99807.50;1790706;79;23400;-73
2022/06/26 11:03:39;;;;;;;3.00;2.05;;;;;;;28.29;59.57;99801.42;1755353;80;20115;-68
2022/06/26 11:06:18;;;;;;;4.33;1.80;;;;;;;28.17;61.03;99809.52;1725386;81;21497;-69
2022/06/26 11:08:50;;;;;;;3.27;1.90;;;;;;;28.03;57.78;99806.58;1727631;81;21099;-71
2022/06/26 11:14:09;;;;;;;;;;;;;;;27.68;62.59;99806.25;1761638;78;23429;-69
2022/06/26 11:16:41;;;;;;;4.72;1.62;;;;;;;27.55;58.61;99800.73;1723812;82;20117;-69
2022/06/26 11:19:20;;;;;;;3.75;1.80;;;;;;;27.37;60.15;99801.10;1723994;82;21524;-67
2022/06/26 11:21:47;;;;;;;6.37;2.70;;;;;;;27.39;62.74;99792.53;1730068;82;20979;-70
2022/06/26 11:24:13;;;;;;;8.88;3.30;;;;;;;27.51;63.47;99802.69;1707175;83;21090;-67
2022/06/26 11:26:40;;;;;;;3.80;3.33;;;;;;;27.61;62.63;99793.59;1734701;82;21019;-71
2022/06/26 11:29:08;;;;;;;4.92;2.33;;;;;;;27.68;62.37;99786.67;1726253;82;21138;-69
2022/06/26 11:31:35;;;;;;;2.58;1.70;;;;;;;27.65;65.32;99805.03;1730335;82;21047;-67
2022/06/26 11:34:10;;;;;;;2.75;1.50;;;;;;;27.59;65.32;99800.18;1730183;82;21094;-67
2022/06/26 11:36:36;;;;;;;3.92;1.50;;;;;;;27.48;64.55;99795.87;1732993;82;21487;-70
2022/06/26 11:39:03;;;;;;;4.05;1.50;;;;;;;27.40;68.06;99804.52;1720853;82;21039;-68
2022/06/26 11:41:29;;;;;;;3.37;1.62;;;;;;;27.32;67.86;99802.23;1743342;82;21448;-69
2022/06/26 11:43:56;;;;;;;4.05;1.50;;;;;;;27.25;66.23;99805.55;1737893;82;21106;-67
2022/06/26 11:46:23;;;;;;;4.08;1.57;;;;;;;27.27;69.45;99801.80;1727039;82;20947;-73
2022/06/26 11:48:50;;;;;;;4.20;1.92;;;;;;;27.41;70.30;99801.95;1632275;86;21699;-66
2022/06/26 11:51:18;;;;;;;4.05;1.60;;;;;;;27.57;75.76;99806.14;1678722;84;21033;-70
2022/06/26 11:53:49;;;;;;;2.77;1.82;;;;;;;27.73;78.50;99799.52;1683437;84;21068;-71
2022/06/26 11:56:21;;;;;;;4.12;1.87;;;;;;;27.81;81.88;99800.58;1669433;84;21030;-67
2022/06/26 11:58:51;;;;;;;4.55;1.52;;;;;;;27.76;78.58;99800.13;1624318;86;21066;-69
2022/06/26 12:01:18;;;;;;;3.72;1.60;;;;;;;27.59;79.03;99810.77;1688622;84;21036;-70
2022/06/26 12:03:51;;;;;;;3.40;1.80;;;;;;;27.42;78.83;99806.36;1696672;84;21580;-69